createdAt,value
2019-02-12T00:01:56.512Z,2.96
2019-02-12T00:04:27.318Z,3.00
2019-02-12T00:06:58.206Z,3.03
2019-02-12T00:09:28.986Z,3.04
2019-02-12T00:11:59.958Z,3.06
2019-02-12T00:14:30.864Z,3.08
2019-02-12T00:17:01.847Z,3.09
2019-02-12T00:19:32.743Z,3.12
2019-02-12T00:22:03.743Z,3.05
2019-02-12T00:24:34.510Z,3.05
2019-02-12T00:27:05.488Z,3.08
2019-02-12T00:29:36.398Z,3.18
2019-02-12T00:32:07.234Z,3.17
2019-02-12T00:34:38.980Z,3.28
2019-02-12T00:37:09.931Z,3.31
2019-02-12T00:39:40.871Z,3.33
2019-02-12T00:42:11.767Z,3.36
2019-02-12T00:44:42.531Z,3.37
2019-02-12T00:47:13.459Z,3.35
2019-02-12T00:49:44.509Z,3.42
2019-02-12T00:52:15.359Z,3.45
2019-02-12T00:54:46.339Z,3.47
2019-02-12T00:57:17.239Z,3.48
2019-02-12T00:59:49.148Z,3.51
2019-02-12T01:02:20.310Z,3.51
2019-02-12T01:04:51.283Z,3.56
2019-02-12T01:07:22.104Z,3.35
2019-02-12T01:09:52.986Z,3.41
2019-02-12T01:12:23.786Z,3.42
2019-02-12T01:14:54.797Z,3.37
2019-02-12T01:17:25.659Z,3.31
2019-02-12T01:19:56.631Z,3.26
2019-02-12T01:22:27.531Z,3.10
2019-02-12T01:24:58.510Z,3.03
2019-02-12T01:27:29.319Z,2.99
2019-02-12T01:30:00.319Z,3.04
2019-02-12T01:32:31.196Z,3.10
2019-02-12T01:35:02.083Z,3.17
2019-02-12T01:37:32.856Z,3.22
2019-02-12T01:40:03.913Z,3.29
2019-02-12T01:42:34.850Z,3.27
2019-02-12T01:45:06.011Z,3.26
2019-02-12T01:47:36.916Z,3.33
2019-02-12T01:50:08.848Z,3.32
2019-02-12T01:52:39.727Z,3.31
2019-02-12T01:55:10.805Z,3.16
2019-02-12T01:57:41.590Z,3.17
2019-02-12T02:00:16.078Z,3.16
2019-02-12T02:02:46.963Z,3.15
2019-02-12T02:05:17.945Z,3.17
2019-02-12T02:07:48.833Z,3.13
2019-02-12T02:10:20.122Z,3.09
2019-02-12T02:12:50.923Z,3.16
2019-02-12T02:15:22.198Z,3.19
2019-02-12T02:17:52.986Z,3.25
2019-02-12T02:20:23.877Z,3.27
2019-02-12T02:22:54.681Z,3.22
2019-02-12T02:25:25.639Z,3.26
2019-02-12T02:27:56.459Z,3.29
2019-02-12T02:30:27.422Z,3.33
2019-02-12T02:32:58.217Z,3.29
2019-02-12T02:35:29.163Z,3.32
2019-02-12T02:38:00.002Z,3.35
2019-02-12T02:40:30.997Z,3.30
2019-02-12T02:43:01.882Z,3.27
2019-02-12T02:45:32.928Z,3.29
2019-02-12T02:48:03.872Z,3.31
2019-02-12T02:50:34.822Z,3.36
2019-02-12T02:53:05.735Z,3.32
2019-02-12T02:55:36.702Z,3.32
2019-02-12T02:58:07.603Z,3.27
2019-02-12T03:00:38.583Z,3.22
2019-02-12T03:03:09.394Z,3.28
2019-02-12T03:05:40.584Z,3.23
2019-02-12T03:08:11.356Z,3.28
2019-02-12T03:10:42.349Z,3.25
2019-02-12T03:13:13.127Z,3.16
2019-02-12T03:15:44.085Z,3.16
2019-02-12T03:18:15.020Z,3.18
2019-02-12T03:20:46.201Z,3.20
2019-02-12T03:23:16.998Z,3.20
2019-02-12T03:25:47.943Z,3.11
2019-02-12T03:28:18.859Z,3.15
2019-02-12T03:30:49.773Z,3.12
2019-02-12T03:33:20.556Z,3.01
2019-02-12T03:35:51.546Z,3.08
2019-02-12T03:38:22.416Z,3.07
2019-02-12T03:40:53.202Z,3.00
2019-02-12T03:43:24.086Z,2.94
2019-02-12T03:45:55.062Z,2.95
2019-02-12T03:48:25.976Z,2.92
2019-02-12T03:50:56.958Z,2.85
2019-02-12T03:53:27.770Z,2.77
2019-02-12T03:55:58.759Z,2.78
2019-02-12T03:58:29.734Z,2.79
2019-02-12T04:01:00.735Z,2.81
2019-02-12T04:03:32.102Z,2.77
2019-02-12T04:06:03.127Z,2.78
2019-02-12T04:08:33.899Z,2.78
2019-02-12T04:11:04.865Z,2.81
2019-02-12T04:13:35.655Z,2.74
2019-02-12T04:16:06.604Z,2.71
2019-02-12T04:18:37.453Z,2.69
2019-02-12T04:21:08.336Z,2.67
2019-02-12T04:23:39.224Z,2.61
2019-02-12T04:26:10.201Z,2.51
2019-02-12T04:28:40.982Z,2.32
2019-02-12T04:31:11.914Z,2.29
2019-02-12T04:33:42.874Z,2.25
2019-02-12T04:36:13.866Z,2.21
2019-02-12T04:38:44.731Z,2.16
2019-02-12T04:41:15.529Z,2.13
2019-02-12T04:43:46.415Z,2.16
2019-02-12T04:46:17.390Z,2.20
2019-02-12T04:48:48.315Z,2.13
2019-02-12T04:51:19.438Z,2.14
2019-02-12T04:53:50.362Z,2.11
2019-02-12T04:56:21.356Z,2.16
2019-02-12T04:58:52.188Z,2.10
2019-02-12T05:01:23.227Z,2.07
2019-02-12T05:03:54.025Z,2.11
2019-02-12T05:06:25.009Z,2.19
2019-02-12T05:09:22.839Z,2.28
2019-02-12T05:11:55.980Z,2.29
2019-02-12T05:14:26.974Z,2.29
2019-02-12T05:16:57.762Z,2.38
2019-02-12T05:19:29.660Z,2.38
2019-02-12T05:22:00.639Z,2.39
2019-02-12T05:24:31.450Z,2.42
2019-02-12T05:27:02.349Z,2.42
2019-02-12T05:29:33.212Z,2.28
2019-02-12T05:32:04.140Z,2.26
2019-02-12T05:34:35.448Z,2.28
2019-02-12T05:37:06.236Z,2.32
2019-02-12T05:39:37.080Z,2.33
2019-02-12T05:42:07.978Z,2.33
2019-02-12T05:44:38.646Z,2.22
2019-02-12T05:47:09.382Z,2.21
2019-02-12T05:49:40.384Z,2.19
2019-02-12T05:52:11.350Z,2.20
2019-02-12T05:54:42.244Z,2.25
2019-02-12T05:57:13.230Z,2.28
2019-02-12T05:59:46.862Z,2.29
2019-02-12T06:02:16.668Z,2.19
2019-02-12T06:04:47.643Z,2.20
2019-02-12T06:07:18.524Z,2.22
2019-02-12T06:09:49.824Z,2.28
2019-02-12T06:12:20.612Z,2.25
2019-02-12T06:14:51.406Z,2.25
2019-02-12T06:17:22.278Z,2.23
2019-02-12T06:19:53.549Z,2.27
2019-02-12T06:22:24.267Z,2.29
2019-02-12T06:24:55.246Z,2.22
2019-02-12T06:27:26.032Z,2.16
2019-02-12T06:29:57.016Z,2.10
2019-02-12T06:32:27.918Z,2.17
2019-02-12T06:34:58.796Z,2.14
2019-02-12T06:37:29.605Z,2.16
2019-02-12T06:40:00.591Z,2.21
2019-02-12T06:42:31.685Z,2.07
2019-02-12T06:45:02.667Z,2.10
2019-02-12T06:47:33.580Z,2.10
2019-02-12T06:50:05.199Z,2.17
2019-02-12T06:52:36.147Z,2.20
2019-02-12T06:55:07.441Z,2.22
2019-02-12T06:57:38.514Z,2.28
2019-02-12T07:00:10.299Z,2.25
2019-02-12T07:03:16.855Z,2.20
2019-02-12T07:06:23.850Z,2.28
2019-02-12T07:09:21.583Z,2.27
2019-02-12T07:12:54.155Z,2.27
2019-02-12T07:15:37.534Z,2.27
2019-02-12T07:19:04.061Z,2.22
2019-02-12T07:22:12.489Z,2.20
2019-02-12T07:25:09.042Z,2.17
2019-02-12T07:28:23.681Z,2.14
2019-02-12T07:31:27.014Z,2.08
2019-02-12T07:34:22.119Z,2.13
2019-02-12T07:37:42.792Z,2.17
2019-02-12T07:40:51.424Z,2.31
2019-02-12T07:43:49.961Z,2.28
2019-02-12T07:46:42.952Z,2.40
2019-02-12T07:49:53.727Z,2.48
2019-02-12T07:52:53.046Z,2.46
2019-02-12T07:56:04.465Z,2.51
2019-02-12T07:59:19.191Z,2.43
2019-02-12T08:02:33.959Z,2.49
2019-02-12T08:05:31.128Z,2.59
2019-02-12T08:08:31.293Z,2.61
2019-02-12T08:11:07.195Z,2.69
2019-02-12T08:14:11.092Z,2.73
2019-02-12T08:17:25.325Z,2.90
2019-02-12T08:20:42.960Z,2.83
2019-02-12T08:23:47.440Z,2.98
2019-02-12T08:26:37.951Z,2.93
2019-02-12T08:29:57.387Z,2.90
2019-02-12T08:33:15.114Z,2.92
2019-02-12T08:36:25.579Z,2.98
2019-02-12T08:39:12.596Z,3.05
2019-02-12T08:42:19.084Z,2.94
2019-02-12T08:45:27.914Z,3.03
2019-02-12T08:48:25.762Z,3.08
2019-02-12T08:51:36.537Z,3.19
2019-02-12T08:54:49.661Z,3.32
2019-02-12T08:57:59.048Z,3.41
2019-02-12T09:01:12.845Z,3.34
2019-02-12T09:04:27.714Z,3.44
2019-02-12T09:07:32.559Z,3.66
2019-02-12T09:10:28.472Z,3.63
2019-02-12T09:13:35.354Z,3.59
2019-02-12T09:16:31.278Z,3.76
2019-02-12T09:19:40.032Z,3.73
2019-02-12T09:22:46.783Z,3.74
2019-02-12T09:26:01.757Z,3.87
2019-02-12T09:29:05.459Z,4.05
2019-02-12T09:32:22.068Z,3.98
2019-02-12T09:35:11.900Z,3.86
2019-02-12T09:38:35.218Z,3.88
2019-02-12T09:41:19.776Z,3.73
2019-02-12T09:44:52.871Z,3.89
2019-02-12T09:47:50.406Z,4.07
2019-02-12T09:51:04.793Z,3.96
2019-02-12T09:54:28.362Z,4.14
2019-02-12T09:57:25.415Z,4.22
2019-02-12T10:00:33.012Z,4.06
2019-02-12T10:03:47.574Z,4.14
2019-02-12T10:06:56.895Z,4.11
2019-02-12T10:10:01.540Z,4.19
2019-02-12T10:12:49.745Z,4.30
2019-02-12T10:16:07.417Z,4.13
2019-02-12T10:19:05.242Z,4.30
2019-02-12T10:22:12.383Z,4.37
2019-02-12T10:25:16.418Z,4.60
2019-02-12T10:28:25.116Z,4.62
2019-02-12T10:31:03.016Z,4.68
2019-02-12T10:33:33.953Z,4.50
2019-02-12T10:36:04.948Z,4.43
2019-02-12T10:38:35.845Z,4.51
2019-02-12T10:41:06.680Z,4.75
2019-02-12T10:43:37.564Z,5.01
2019-02-12T10:46:08.441Z,5.27
2019-02-12T10:48:39.558Z,5.32
2019-02-12T10:51:10.438Z,5.25
2019-02-12T10:53:41.407Z,5.19
2019-02-12T10:56:12.291Z,5.31
2019-02-12T10:58:43.219Z,5.45
2019-02-12T11:01:14.173Z,5.52
2019-02-12T11:03:45.285Z,5.67
2019-02-12T11:06:16.248Z,5.48
2019-02-12T11:08:47.319Z,5.58
2019-02-12T11:11:18.249Z,5.58
2019-02-12T11:13:49.255Z,5.69
2019-02-12T11:16:20.207Z,5.81
2019-02-12T11:18:51.387Z,5.87
2019-02-12T11:21:22.211Z,5.67
2019-02-12T11:23:53.260Z,5.63
2019-02-12T11:26:24.178Z,5.79
2019-02-12T11:28:55.456Z,5.93
2019-02-12T11:31:26.272Z,6.12
2019-02-12T11:33:57.244Z,6.32
2019-02-12T11:36:28.035Z,6.29
2019-02-12T11:38:58.959Z,6.42
2019-02-12T11:41:29.823Z,6.28
2019-02-12T11:44:00.718Z,6.39
2019-02-12T11:46:31.390Z,6.42
2019-02-12T11:49:02.383Z,6.59
2019-02-12T11:51:33.256Z,6.44
2019-02-12T11:54:04.031Z,6.71
2019-02-12T11:56:34.827Z,6.80
2019-02-12T11:59:06.072Z,6.73
2019-02-12T12:01:37.022Z,6.71
2019-02-12T12:04:08.019Z,6.64
2019-02-12T12:06:38.879Z,6.84
2019-02-12T12:09:09.883Z,6.86
2019-02-12T12:11:40.660Z,6.77
2019-02-12T12:14:11.859Z,6.87
2019-02-12T12:16:42.655Z,6.99
2019-02-12T12:19:13.558Z,7.17
2019-02-12T12:21:45.545Z,7.17
2019-02-12T12:24:16.545Z,7.32
2019-02-12T12:26:47.434Z,7.17
2019-02-12T12:29:18.400Z,7.04
2019-02-12T12:31:49.459Z,6.69
2019-02-12T12:34:20.328Z,7.02
2019-02-12T12:36:51.191Z,7.05
2019-02-12T12:39:22.155Z,7.12
2019-02-12T12:41:53.064Z,7.16
2019-02-12T12:44:24.526Z,6.82
2019-02-12T12:46:55.334Z,7.03
2019-02-12T12:49:27.330Z,7.01
2019-02-12T12:51:58.346Z,6.99
2019-02-12T12:54:29.250Z,7.06
2019-02-12T12:57:01.348Z,7.06
2019-02-12T12:59:32.445Z,7.16
2019-02-12T13:02:03.340Z,7.12
2019-02-12T13:04:34.307Z,7.32
2019-02-12T13:07:05.104Z,7.36
2019-02-12T13:09:36.003Z,7.52
2019-02-12T13:12:06.885Z,7.31
2019-02-12T13:14:37.686Z,7.18
2019-02-12T13:17:08.565Z,7.34
2019-02-12T13:19:39.509Z,7.45
2019-02-12T13:22:10.315Z,7.54
2019-02-12T13:24:41.805Z,7.18
2019-02-12T13:27:12.702Z,7.42
2019-02-12T13:29:43.598Z,7.44
2019-02-12T13:32:14.379Z,7.60
2019-02-12T13:34:45.291Z,7.80
2019-02-12T13:37:16.070Z,7.77
2019-02-12T13:39:47.318Z,7.86
2019-02-12T13:42:18.131Z,7.87
2019-02-12T13:44:49.148Z,7.85
2019-02-12T13:47:19.928Z,7.84
2019-02-12T13:49:51.001Z,7.54
2019-02-12T13:52:21.802Z,7.41
2019-02-12T13:54:52.927Z,7.44
2019-02-12T13:57:23.969Z,7.53
2019-02-12T13:59:54.881Z,7.77
2019-02-12T14:02:25.743Z,7.88
2019-02-12T14:04:56.753Z,7.89
2019-02-12T14:07:27.539Z,7.82
2019-02-12T14:09:58.510Z,7.85
2019-02-12T14:12:29.309Z,7.71
2019-02-12T14:15:00.275Z,7.78
2019-02-12T14:17:31.172Z,7.68
2019-02-12T14:20:02.084Z,7.54
2019-02-12T14:22:32.862Z,7.54
2019-02-12T14:25:03.855Z,7.78
2019-02-12T14:27:34.738Z,7.83
2019-02-12T14:30:06.144Z,7.73
2019-02-12T14:32:37.425Z,7.68
2019-02-12T14:35:19.731Z,7.66
2019-02-12T14:37:50.557Z,7.46
2019-02-12T14:40:21.515Z,7.60
2019-02-12T14:42:52.408Z,7.66
2019-02-12T14:45:23.269Z,7.73
2019-02-12T14:47:54.163Z,7.68
2019-02-12T14:50:25.055Z,7.39
2019-02-12T14:52:55.970Z,7.39
2019-02-12T14:55:33.544Z,7.52
2019-02-12T14:57:59.667Z,7.63
2019-02-12T15:00:30.542Z,7.53
2019-02-12T15:03:01.557Z,7.67
2019-02-12T15:05:32.437Z,7.73
2019-02-12T15:08:03.418Z,7.79
2019-02-12T15:10:34.199Z,7.81
2019-02-12T15:13:05.029Z,7.60
2019-02-12T15:15:36.307Z,7.44
2019-02-12T15:18:08.254Z,7.33
2019-02-12T15:20:39.381Z,7.35
2019-02-12T15:23:10.395Z,7.31
2019-02-12T15:25:42.164Z,7.18
2019-02-12T15:28:13.144Z,7.33
2019-02-12T15:30:44.001Z,7.43
2019-02-12T15:33:14.899Z,7.50
2019-02-12T15:35:45.801Z,7.46
2019-02-12T15:38:16.588Z,7.39
2019-02-12T15:40:47.467Z,7.37
2019-02-12T15:43:18.345Z,7.33
2019-02-12T15:45:49.333Z,7.40
2019-02-12T15:48:20.123Z,7.34
2019-02-12T15:50:51.178Z,7.35
2019-02-12T15:53:22.026Z,7.08
2019-02-12T15:55:52.855Z,7.01
2019-02-12T15:58:23.828Z,6.98
2019-02-12T16:00:54.610Z,6.93
2019-02-12T16:03:25.498Z,6.94
2019-02-12T16:05:57.201Z,6.92
2019-02-12T16:08:30.479Z,6.84
2019-02-12T16:11:01.442Z,6.96
2019-02-12T16:13:33.099Z,6.86
2019-02-12T16:16:05.737Z,6.80
2019-02-12T16:18:37.525Z,6.70
2019-02-12T16:21:08.382Z,6.81
2019-02-12T16:23:39.331Z,6.65
2019-02-12T16:26:10.141Z,6.58
2019-02-12T16:28:41.085Z,6.54
2019-02-12T16:31:12.034Z,6.60
2019-02-12T16:33:42.923Z,6.58
2019-02-12T16:36:14.794Z,6.50
2019-02-12T16:38:45.776Z,6.34
2019-02-12T16:41:16.881Z,6.09
2019-02-12T16:43:47.735Z,5.88
2019-02-12T16:46:20.834Z,5.69
2019-02-12T16:48:51.674Z,5.51
2019-02-12T16:51:23.044Z,5.36
2019-02-12T16:53:53.967Z,5.24
2019-02-12T16:56:25.043Z,5.24
2019-02-12T16:59:03.412Z,5.25
2019-02-12T17:01:28.455Z,5.13
2019-02-12T17:03:59.339Z,5.06
2019-02-12T17:06:30.362Z,4.98
2019-02-12T17:09:02.157Z,4.77
2019-02-12T17:11:34.583Z,4.74
2019-02-12T17:14:05.264Z,4.81
2019-02-12T17:16:38.128Z,4.79
2019-02-12T17:19:09.075Z,4.61
2019-02-12T17:21:39.974Z,4.49
2019-02-12T17:24:11.098Z,4.51
2019-02-12T17:26:42.238Z,4.57
2019-02-12T17:29:13.490Z,4.40
2019-02-12T17:31:46.329Z,4.21
2019-02-12T17:34:18.795Z,4.10
2019-02-12T17:36:49.692Z,4.10
2019-02-12T17:39:20.680Z,4.16
2019-02-12T17:41:51.860Z,4.16
2019-02-12T17:44:22.650Z,4.15
2019-02-12T17:46:53.542Z,4.15
2019-02-12T17:49:24.428Z,4.10
2019-02-12T17:51:56.532Z,4.04
2019-02-12T17:54:27.348Z,4.13
2019-02-12T17:56:58.307Z,4.08
2019-02-12T17:59:29.330Z,4.03
2019-02-12T18:02:00.404Z,4.04
2019-02-12T18:04:31.183Z,4.04
2019-02-12T18:07:02.052Z,4.05
2019-02-12T18:09:32.959Z,4.00
2019-02-12T18:12:03.979Z,3.93
2019-02-12T18:14:34.756Z,3.90
2019-02-12T18:17:05.804Z,3.89
2019-02-12T18:19:39.916Z,3.81
2019-02-12T18:22:11.820Z,3.76
2019-02-12T18:24:44.122Z,3.68
2019-02-12T18:27:16.307Z,3.58
2019-02-12T18:29:47.560Z,3.61
2019-02-12T18:32:21.642Z,3.55
2019-02-12T18:34:52.509Z,3.49
2019-02-12T18:37:23.650Z,3.39
2019-02-12T18:39:54.588Z,3.38
2019-02-12T18:42:25.548Z,3.39
2019-02-12T18:44:56.424Z,3.27
2019-02-12T18:47:27.537Z,3.27
2019-02-12T18:49:58.446Z,3.28
2019-02-12T18:52:29.327Z,3.03
2019-02-12T18:55:01.139Z,3.00
2019-02-12T18:57:32.013Z,3.08
2019-02-12T19:00:05.669Z,3.01
2019-02-12T19:02:37.021Z,2.93
2019-02-12T19:05:08.583Z,2.94
2019-02-12T19:07:39.585Z,2.89
2019-02-12T19:10:11.371Z,2.93
2019-02-12T19:12:42.480Z,3.02
2019-02-12T19:15:14.887Z,2.98
2019-02-12T19:17:51.543Z,2.98
2019-02-12T19:20:22.500Z,2.92
2019-02-12T19:22:53.378Z,2.85
2019-02-12T19:25:24.163Z,2.82
2019-02-12T19:27:54.859Z,2.76
2019-02-12T19:30:25.637Z,2.71
2019-02-12T19:32:56.635Z,2.68
2019-02-12T19:35:27.420Z,2.65
2019-02-12T19:37:58.593Z,2.61
2019-02-12T19:40:29.382Z,2.61
2019-02-12T19:43:00.377Z,2.57
2019-02-12T19:45:32.280Z,2.59
2019-02-12T19:48:03.320Z,2.58
2019-02-12T19:50:34.168Z,2.60
2019-02-12T19:53:05.911Z,2.60
2019-02-12T19:55:37.777Z,2.55
2019-02-12T19:58:08.974Z,2.50
2019-02-12T20:00:39.859Z,2.52
2019-02-12T20:03:10.908Z,2.50
2019-02-12T20:05:41.759Z,2.48
2019-02-12T20:08:12.741Z,2.45
2019-02-12T20:10:43.516Z,2.44
2019-02-12T20:13:14.508Z,2.36
2019-02-12T20:15:46.423Z,2.35
2019-02-12T20:18:17.404Z,2.26
2019-02-12T20:20:48.208Z,2.21
2019-02-12T20:23:19.094Z,2.17
2019-02-12T20:25:49.861Z,2.12
2019-02-12T20:28:20.761Z,2.12
2019-02-12T20:30:51.533Z,2.15
2019-02-12T20:33:22.450Z,2.21
2019-02-12T20:35:53.223Z,2.21
2019-02-12T20:38:24.193Z,2.08
2019-02-12T20:40:54.993Z,1.99
2019-02-12T20:43:25.978Z,1.83
2019-02-12T20:45:56.756Z,2.01
2019-02-12T20:48:27.704Z,2.07
2019-02-12T20:51:01.119Z,2.14
2019-02-12T20:53:32.599Z,2.09
2019-02-12T20:56:03.561Z,2.17
2019-02-12T20:58:35.759Z,2.09
2019-02-12T21:01:06.842Z,2.13
2019-02-12T21:03:37.935Z,2.18
2019-02-12T21:06:09.232Z,2.18
2019-02-12T21:08:40.107Z,2.19
2019-02-12T21:11:11.107Z,2.09
2019-02-12T21:13:43.054Z,2.04
2019-02-12T21:16:14.305Z,2.07
2019-02-12T21:18:45.302Z,2.09
2019-02-12T21:21:16.164Z,2.03
2019-02-12T21:23:47.043Z,1.91
2019-02-12T21:26:17.934Z,1.90
2019-02-12T21:28:48.819Z,1.93
2019-02-12T21:31:19.596Z,1.90
2019-02-12T21:33:50.478Z,1.93
2019-02-12T21:36:21.363Z,1.82
2019-02-12T21:38:52.253Z,1.76
2019-02-12T21:41:23.144Z,1.72
2019-02-12T21:43:54.352Z,1.67
2019-02-12T21:46:25.131Z,1.58
2019-02-12T21:48:56.026Z,1.64
2019-02-12T21:51:26.897Z,1.43
2019-02-12T21:53:58.637Z,1.44
2019-02-12T21:56:29.401Z,1.40
2019-02-12T21:59:00.272Z,1.44
2019-02-12T22:01:31.170Z,1.46
2019-02-12T22:04:02.068Z,1.49
2019-02-12T22:06:32.856Z,1.49
2019-02-12T22:09:05.202Z,1.51
2019-02-12T22:11:36.891Z,1.42
2019-02-12T22:14:07.766Z,1.38
2019-02-12T22:16:38.542Z,1.35
2019-02-12T22:19:09.454Z,1.37
2019-02-12T22:21:40.221Z,1.38
2019-02-12T22:24:11.113Z,1.34
2019-02-12T22:26:41.898Z,1.29
2019-02-12T22:29:12.852Z,1.32
2019-02-12T22:31:44.173Z,1.25
2019-02-12T22:34:15.187Z,1.28
2019-02-12T22:36:45.962Z,1.28
2019-02-12T22:39:16.954Z,1.21
2019-02-12T22:41:47.533Z,1.18
2019-02-12T22:44:18.460Z,1.17
2019-02-12T22:46:49.283Z,1.18
2019-02-12T22:49:20.190Z,1.14
2019-02-12T22:51:51.069Z,1.12
2019-02-12T22:54:21.954Z,1.14
2019-02-12T22:56:52.948Z,1.14
2019-02-12T22:59:23.860Z,1.14
2019-02-12T23:01:54.831Z,1.14
2019-02-12T23:04:26.278Z,1.18
2019-02-12T23:06:57.215Z,1.11
2019-02-12T23:09:28.215Z,1.11
2019-02-12T23:11:58.999Z,1.04
2019-02-12T23:14:30.007Z,1.05
2019-02-12T23:17:00.956Z,0.99
2019-02-12T23:19:31.968Z,1.07
2019-02-12T23:22:02.643Z,1.02
2019-02-12T23:24:33.525Z,1.08
2019-02-12T23:27:04.402Z,1.14
2019-02-12T23:29:35.491Z,1.14
2019-02-12T23:32:06.382Z,1.21
2019-02-12T23:34:38.210Z,1.29
2019-02-12T23:37:09.278Z,1.25
2019-02-12T23:39:41.178Z,1.20
2019-02-12T23:42:12.089Z,1.18
2019-02-12T23:44:43.065Z,1.10
2019-02-12T23:47:13.869Z,1.03
2019-02-12T23:49:44.847Z,1.03
2019-02-12T23:52:15.849Z,0.97
2019-02-12T23:54:46.841Z,0.86
2019-02-12T23:57:17.726Z,0.81
2019-02-12T23:59:48.665Z,0.76
